Missouri River (Missouri), Kansas City (06893000)

StateMissouriLatestUnknown (72800 cfs)
RiverMissouri RiverRatingObservedEstimated
Updated2020-02-25 13:30 (1 hour ago)Flood - The river is flooding. Obstacles can be treacherous or deadly. The river should be avoided at this stage for casual trips and definitely for the inexperienced. Trips should be attempted only with protective gear and equipment.Flood(none)(none)
Discharge72800 cfs (median: 39100 cfs)High - The river is high and potentially dangerous, especially for the young and / or inexperienced. Normal stream obstacles are sometimes difficult to navigate. Extended distances can be attempted, but canoe travel may not be advisable.High(none)(none)
Height13.68 feetGood - Conditions are ideal for a canoe or kayak. Boats typically will drag on fewer than one-quarter of riffles, if at all, and portages are unnecessary or rare. Normal float lengths can be attempted without a problem.Good(none)(none)
TrendRising (rising over 24 hours)Low - River is low but can still be floated. Some riffles are okay but most come with significant dragging and might need a portage. Float lengths should be reduced to accommodate low flow, dragging, and portages.Low(none)(none)
USGSExternal icon USGS Site (External icon Google Maps)Poor - River is too low to float comfortably. Most or all riffles will drag or must be portaged and some obstacles (such as slick shelf rock) cause undue problems. Avoid the river at this stage for casual paddling trips.Poor(none)(none)

Trending Data

Plot Image

Trips for Missouri River (Missouri), Kansas City (06893000)

DateStartEndDistanceConditionDischargeHeightFishingDetails

A total of 0 rows are displayed.

Condition Descriptions

Fishing Conditions

Fish Species

Notes

Classic Trip List

The classic River Trips application is still available for use. It is updated with the new system using a data retrofit. It is no longer maintained. The original River Trips application is no longer updated (as of 1 Dec 2016) but can be checked for errors or for the condition of the data before it was converted to the new system.

Gauge Data Table

ObservationHeightDischargeMaximum
Discharge
Minimum
Discharge
Mean
Discharge
P05P10P20P25P50
(Median)
P75P80P90P95
2020-02-25 13:30 13.68 72800 114000 (1982) 14600 (1967) 45900 19700 24000 28200 30300 39100 57000 64500 78900 94900
2020-02-25 12:30 13.65 72600 114000 (1982) 14600 (1967) 45900 19700 24000 28200 30300 39100 57000 64500 78900 94900
2020-02-25 11:30 13.59 72200 114000 (1982) 14600 (1967) 45900 19700 24000 28200 30300 39100 57000 64500 78900 94900
2020-02-25 10:30 13.54 71800 114000 (1982) 14600 (1967) 45900 19700 24000 28200 30300 39100 57000 64500 78900 94900
2020-02-25 09:30 13.51 71600 114000 (1982) 14600 (1967) 45900 19700 24000 28200 30300 39100 57000 64500 78900 94900
2020-02-25 08:30 13.47 71400 114000 (1982) 14600 (1967) 45900 19700 24000 28200 30300 39100 57000 64500 78900 94900
2020-02-25 07:30 13.48 71400 114000 (1982) 14600 (1967) 45900 19700 24000 28200 30300 39100 57000 64500 78900 94900
2020-02-25 06:30 13.42 71000 114000 (1982) 14600 (1967) 45900 19700 24000 28200 30300 39100 57000 64500 78900 94900
2020-02-25 05:30 13.42 71000 114000 (1982) 14600 (1967) 45900 19700 24000 28200 30300 39100 57000 64500 78900 94900
2020-02-25 04:30 13.39 70800 114000 (1982) 14600 (1967) 45900 19700 24000 28200 30300 39100 57000 64500 78900 94900
2020-02-25 03:30 13.37 70700 114000 (1982) 14600 (1967) 45900 19700 24000 28200 30300 39100 57000 64500 78900 94900
2020-02-25 02:30 13.35 70600 114000 (1982) 14600 (1967) 45900 19700 24000 28200 30300 39100 57000 64500 78900 94900
2020-02-25 01:30 13.30 70200 114000 (1982) 14600 (1967) 45900 19700 24000 28200 30300 39100 57000 64500 78900 94900
2020-02-25 00:30 13.31 70300 114000 (1982) 14600 (1967) 45900 19700 24000 28200 30300 39100 57000 64500 78900 94900
2020-02-24 23:30 13.27 70000 121000 (1971) 15000 (1967) 44900 19800 22500 27600 30100 37700 53000 58800 81300 105000
2020-02-24 22:30 13.27 70000 121000 (1971) 15000 (1967) 44900 19800 22500 27600 30100 37700 53000 58800 81300 105000
2020-02-24 21:30 13.23 69800 121000 (1971) 15000 (1967) 44900 19800 22500 27600 30100 37700 53000 58800 81300 105000
2020-02-24 20:30 13.23 69800 121000 (1971) 15000 (1967) 44900 19800 22500 27600 30100 37700 53000 58800 81300 105000
2020-02-24 19:30 13.17 69400 121000 (1971) 15000 (1967) 44900 19800 22500 27600 30100 37700 53000 58800 81300 105000
2020-02-24 18:30 13.18 69500 121000 (1971) 15000 (1967) 44900 19800 22500 27600 30100 37700 53000 58800 81300 105000
2020-02-24 17:30 13.21 69600 121000 (1971) 15000 (1967) 44900 19800 22500 27600 30100 37700 53000 58800 81300 105000
2020-02-24 16:30 13.13 69100 121000 (1971) 15000 (1967) 44900 19800 22500 27600 30100 37700 53000 58800 81300 105000
2020-02-24 15:30 13.09 68900 121000 (1971) 15000 (1967) 44900 19800 22500 27600 30100 37700 53000 58800 81300 105000
2020-02-24 14:30 13.09 68900 121000 (1971) 15000 (1967) 44900 19800 22500 27600 30100 37700 53000 58800 81300 105000
2020-02-24 13:30 13.09 68900 121000 (1971) 15000 (1967) 44900 19800 22500 27600 30100 37700 53000 58800 81300 105000
2020-02-24 12:30 13.11 69000 121000 (1971) 15000 (1967) 44900 19800 22500 27600 30100 37700 53000 58800 81300 105000
2020-02-24 11:30 13.08 68800 121000 (1971) 15000 (1967) 44900 19800 22500 27600 30100 37700 53000 58800 81300 105000
2020-02-24 10:30 13.05 68600 121000 (1971) 15000 (1967) 44900 19800 22500 27600 30100 37700 53000 58800 81300 105000
2020-02-24 09:30 13.04 68500 121000 (1971) 15000 (1967) 44900 19800 22500 27600 30100 37700 53000 58800 81300 105000
2020-02-24 08:30 13.02 68400 121000 (1971) 15000 (1967) 44900 19800 22500 27600 30100 37700 53000 58800 81300 105000
2020-02-24 07:30 12.99 68200 121000 (1971) 15000 (1967) 44900 19800 22500 27600 30100 37700 53000 58800 81300 105000
2020-02-24 06:30 13.00 68300 121000 (1971) 15000 (1967) 44900 19800 22500 27600 30100 37700 53000 58800 81300 105000
2020-02-24 05:30 12.98 68200 121000 (1971) 15000 (1967) 44900 19800 22500 27600 30100 37700 53000 58800 81300 105000
2020-02-24 04:30 12.95 68000 121000 (1971) 15000 (1967) 44900 19800 22500 27600 30100 37700 53000 58800 81300 105000
2020-02-24 03:30 12.96 68000 121000 (1971) 15000 (1967) 44900 19800 22500 27600 30100 37700 53000 58800 81300 105000
2020-02-24 02:30 12.93 67800 121000 (1971) 15000 (1967) 44900 19800 22500 27600 30100 37700 53000 58800 81300 105000
2020-02-24 01:30 12.90 67600 121000 (1971) 15000 (1967) 44900 19800 22500 27600 30100 37700 53000 58800 81300 105000
2020-02-24 00:30 12.91 67700 121000 (1971) 15000 (1967) 44900 19800 22500 27600 30100 37700 53000 58800 81300 105000
2020-02-23 23:30 12.85 67300 125000 (1971) 14600 (1958) 44900 18400 23100 25900 28200 38400 50300 56100 87100 105000
2020-02-23 22:30 12.89 67600 125000 (1971) 14600 (1958) 44900 18400 23100 25900 28200 38400 50300 56100 87100 105000
2020-02-23 21:30 12.87 67400 125000 (1971) 14600 (1958) 44900 18400 23100 25900 28200 38400 50300 56100 87100 105000
2020-02-23 20:30 12.90 67600 125000 (1971) 14600 (1958) 44900 18400 23100 25900 28200 38400 50300 56100 87100 105000
2020-02-23 19:30 12.88 67500 125000 (1971) 14600 (1958) 44900 18400 23100 25900 28200 38400 50300 56100 87100 105000
2020-02-23 18:30 12.91 67700 125000 (1971) 14600 (1958) 44900 18400 23100 25900 28200 38400 50300 56100 87100 105000
2020-02-23 17:30 12.93 67800 125000 (1971) 14600 (1958) 44900 18400 23100 25900 28200 38400 50300 56100 87100 105000
2020-02-23 16:30 12.93 67800 125000 (1971) 14600 (1958) 44900 18400 23100 25900 28200 38400 50300 56100 87100 105000
2020-02-23 15:30 12.96 68000 125000 (1971) 14600 (1958) 44900 18400 23100 25900 28200 38400 50300 56100 87100 105000
2020-02-23 14:30 12.99 68200 125000 (1971) 14600 (1958) 44900 18400 23100 25900 28200 38400 50300 56100 87100 105000
2020-02-23 13:30 12.98 68200 125000 (1971) 14600 (1958) 44900 18400 23100 25900 28200 38400 50300 56100 87100 105000
2020-02-23 12:30 13.00 68300 125000 (1971) 14600 (1958) 44900 18400 23100 25900 28200 38400 50300 56100 87100 105000
2020-02-23 11:30 13.03 68500 125000 (1971) 14600 (1958) 44900 18400 23100 25900 28200 38400 50300 56100 87100 105000
2020-02-23 10:30 13.05 68600 125000 (1971) 14600 (1958) 44900 18400 23100 25900 28200 38400 50300 56100 87100 105000
2020-02-23 09:30 13.05 68600 125000 (1971) 14600 (1958) 44900 18400 23100 25900 28200 38400 50300 56100 87100 105000
2020-02-23 08:30 13.05 68600 125000 (1971) 14600 (1958) 44900 18400 23100 25900 28200 38400 50300 56100 87100 105000
2020-02-23 07:30 13.08 68800 125000 (1971) 14600 (1958) 44900 18400 23100 25900 28200 38400 50300 56100 87100 105000
2020-02-23 06:30 13.09 68900 125000 (1971) 14600 (1958) 44900 18400 23100 25900 28200 38400 50300 56100 87100 105000
2020-02-23 05:30 13.09 68900 125000 (1971) 14600 (1958) 44900 18400 23100 25900 28200 38400 50300 56100 87100 105000
2020-02-23 04:30 13.12 69100 125000 (1971) 14600 (1958) 44900 18400 23100 25900 28200 38400 50300 56100 87100 105000
2020-02-23 02:30 13.18 69500 125000 (1971) 14600 (1958) 44900 18400 23100 25900 28200 38400 50300 56100 87100 105000
2020-02-23 01:30 13.23 69800 125000 (1971) 14600 (1958) 44900 18400 23100 25900 28200 38400 50300 56100 87100 105000
2020-02-23 00:30 13.24 69800 125000 (1971) 14600 (1958) 44900 18400 23100 25900 28200 38400 50300 56100 87100 105000
2020-02-22 23:30 13.27 70000 122000 (1971) 13100 (1958) 43700 18100 23100 25800 27800 37000 47300 53700 83100 104000
2020-02-22 22:30 13.30 70200 122000 (1971) 13100 (1958) 43700 18100 23100 25800 27800 37000 47300 53700 83100 104000
2020-02-22 21:30 13.36 70600 122000 (1971) 13100 (1958) 43700 18100 23100 25800 27800 37000 47300 53700 83100 104000
2020-02-22 20:30 13.38 70800 122000 (1971) 13100 (1958) 43700 18100 23100 25800 27800 37000 47300 53700 83100 104000
2020-02-22 19:30 13.39 70800 122000 (1971) 13100 (1958) 43700 18100 23100 25800 27800 37000 47300 53700 83100 104000
2020-02-22 18:30 13.42 71000 122000 (1971) 13100 (1958) 43700 18100 23100 25800 27800 37000 47300 53700 83100 104000
2020-02-22 17:30 13.48 71400 122000 (1971) 13100 (1958) 43700 18100 23100 25800 27800 37000 47300 53700 83100 104000
2020-02-22 16:30 13.53 71800 122000 (1971) 13100 (1958) 43700 18100 23100 25800 27800 37000 47300 53700 83100 104000
2020-02-22 15:30 13.53 71800 122000 (1971) 13100 (1958) 43700 18100 23100 25800 27800 37000 47300 53700 83100 104000
2020-02-22 14:30 13.60 72200 122000 (1971) 13100 (1958) 43700 18100 23100 25800 27800 37000 47300 53700 83100 104000
2020-02-22 13:30 13.62 72400 122000 (1971) 13100 (1958) 43700 18100 23100 25800 27800 37000 47300 53700 83100 104000
2020-02-22 12:30 13.67 72700 122000 (1971) 13100 (1958) 43700 18100 23100 25800 27800 37000 47300 53700 83100 104000
2020-02-22 11:30 13.70 72900 122000 (1971) 13100 (1958) 43700 18100 23100 25800 27800 37000 47300 53700 83100 104000
2020-02-22 10:30 13.73 73100 122000 (1971) 13100 (1958) 43700 18100 23100 25800 27800 37000 47300 53700 83100 104000
2020-02-22 09:30 13.79 73500 122000 (1971) 13100 (1958) 43700 18100 23100 25800 27800 37000 47300 53700 83100 104000
2020-02-22 08:30 13.82 73700 122000 (1971) 13100 (1958) 43700 18100 23100 25800 27800 37000 47300 53700 83100 104000
2020-02-22 07:30 13.86 74000 122000 (1971) 13100 (1958) 43700 18100 23100 25800 27800 37000 47300 53700 83100 104000
2020-02-22 06:30 13.90 74200 122000 (1971) 13100 (1958) 43700 18100 23100 25800 27800 37000 47300 53700 83100 104000
2020-02-22 05:30 13.92 74400 122000 (1971) 13100 (1958) 43700 18100 23100 25800 27800 37000 47300 53700 83100 104000
2020-02-22 04:30 13.96 74600 122000 (1971) 13100 (1958) 43700 18100 23100 25800 27800 37000 47300 53700 83100 104000
2020-02-22 03:30 14.02 75000 122000 (1971) 13100 (1958) 43700 18100 23100 25800 27800 37000 47300 53700 83100 104000
2020-02-22 02:30 14.02 75000 122000 (1971) 13100 (1958) 43700 18100 23100 25800 27800 37000 47300 53700 83100 104000
2020-02-22 01:30 14.03 75100 122000 (1971) 13100 (1958) 43700 18100 23100 25800 27800 37000 47300 53700 83100 104000
2020-02-22 00:30 14.10 75600 122000 (1971) 13100 (1958) 43700 18100 23100 25800 27800 37000 47300 53700 83100 104000
2020-02-21 23:30 14.10 75600 118000 (1971) 12000 (1958) 42000 17300 22100 24600 25500 35900 48300 54100 82800 97600
2020-02-21 22:30 14.13 75800 118000 (1971) 12000 (1958) 42000 17300 22100 24600 25500 35900 48300 54100 82800 97600
2020-02-21 21:30 14.18 76100 118000 (1971) 12000 (1958) 42000 17300 22100 24600 25500 35900 48300 54100 82800 97600
2020-02-21 20:30 14.16 76000 118000 (1971) 12000 (1958) 42000 17300 22100 24600 25500 35900 48300 54100 82800 97600
2020-02-21 19:30 14.22 76400 118000 (1971) 12000 (1958) 42000 17300 22100 24600 25500 35900 48300 54100 82800 97600
2020-02-21 18:30 14.23 76500 118000 (1971) 12000 (1958) 42000 17300 22100 24600 25500 35900 48300 54100 82800 97600
2020-02-21 17:30 14.27 76800 118000 (1971) 12000 (1958) 42000 17300 22100 24600 25500 35900 48300 54100 82800 97600
2020-02-21 16:30 14.25 76600 118000 (1971) 12000 (1958) 42000 17300 22100 24600 25500 35900 48300 54100 82800 97600
2020-02-21 15:30 14.26 76700 118000 (1971) 12000 (1958) 42000 17300 22100 24600 25500 35900 48300 54100 82800 97600
2020-02-21 14:30 14.33 77200 118000 (1971) 12000 (1958) 42000 17300 22100 24600 25500 35900 48300 54100 82800 97600
2020-02-21 13:30 14.30 77000 118000 (1971) 12000 (1958) 42000 17300 22100 24600 25500 35900 48300 54100 82800 97600
2020-02-21 12:30 14.32 77100 118000 (1971) 12000 (1958) 42000 17300 22100 24600 25500 35900 48300 54100 82800 97600
2020-02-21 11:30 14.36 77400 118000 (1971) 12000 (1958) 42000 17300 22100 24600 25500 35900 48300 54100 82800 97600
2020-02-21 10:30 14.38 77500 118000 (1971) 12000 (1958) 42000 17300 22100 24600 25500 35900 48300 54100 82800 97600
2020-02-21 09:30 14.37 77400 118000 (1971) 12000 (1958) 42000 17300 22100 24600 25500 35900 48300 54100 82800 97600
2020-02-21 08:30 14.40 77700 118000 (1971) 12000 (1958) 42000 17300 22100 24600 25500 35900 48300 54100 82800 97600
2020-02-21 07:30 14.39 77600 118000 (1971) 12000 (1958) 42000 17300 22100 24600 25500 35900 48300 54100 82800 97600
2020-02-21 06:30 14.37 77400 118000 (1971) 12000 (1958) 42000 17300 22100 24600 25500 35900 48300 54100 82800 97600
2020-02-21 05:30 14.40 77700 118000 (1971) 12000 (1958) 42000 17300 22100 24600 25500 35900 48300 54100 82800 97600
2020-02-21 04:30 14.40 77700 118000 (1971) 12000 (1958) 42000 17300 22100 24600 25500 35900 48300 54100 82800 97600
2020-02-21 03:30 14.36 77400 118000 (1971) 12000 (1958) 42000 17300 22100 24600 25500 35900 48300 54100 82800 97600
2020-02-21 02:30 14.37 77400 118000 (1971) 12000 (1958) 42000 17300 22100 24600 25500 35900 48300 54100 82800 97600
2020-02-21 01:30 14.35 77300 118000 (1971) 12000 (1958) 42000 17300 22100 24600 25500 35900 48300 54100 82800 97600
2020-02-21 00:30 14.35 77300 118000 (1971) 12000 (1958) 42000 17300 22100 24600 25500 35900 48300 54100 82800 97600
2020-02-20 23:30 14.34 77200 101000 (1971) 12000 (1958) 40500 17100 22300 25000 26600 34600 47200 50400 70700 90100
2020-02-20 22:30 14.30 77000 101000 (1971) 12000 (1958) 40500 17100 22300 25000 26600 34600 47200 50400 70700 90100
2020-02-20 21:30 14.28 76800 101000 (1971) 12000 (1958) 40500 17100 22300 25000 26600 34600 47200 50400 70700 90100
2020-02-20 20:30 14.27 76800 101000 (1971) 12000 (1958) 40500 17100 22300 25000 26600 34600 47200 50400 70700 90100
2020-02-20 19:30 14.21 76300 101000 (1971) 12000 (1958) 40500 17100 22300 25000 26600 34600 47200 50400 70700 90100
2020-02-20 18:30 14.16 76000 101000 (1971) 12000 (1958) 40500 17100 22300 25000 26600 34600 47200 50400 70700 90100
2020-02-20 17:30 14.15 75900 101000 (1971) 12000 (1958) 40500 17100 22300 25000 26600 34600 47200 50400 70700 90100
2020-02-20 16:30 14.11 75700 101000 (1971) 12000 (1958) 40500 17100 22300 25000 26600 34600 47200 50400 70700 90100
2020-02-20 15:30 14.05 75300 101000 (1971) 12000 (1958) 40500 17100 22300 25000 26600 34600 47200 50400 70700 90100
2020-02-20 14:30 14.05 75300 101000 (1971) 12000 (1958) 40500 17100 22300 25000 26600 34600 47200 50400 70700 90100
2020-02-20 13:30 13.96 74600 101000 (1971) 12000 (1958) 40500 17100 22300 25000 26600 34600 47200 50400 70700 90100
2020-02-20 12:30 13.93 74400 101000 (1971) 12000 (1958) 40500 17100 22300 25000 26600 34600 47200 50400 70700 90100
2020-02-20 11:30 13.93 74400 101000 (1971) 12000 (1958) 40500 17100 22300 25000 26600 34600 47200 50400 70700 90100
2020-02-20 10:30 13.87 74000 101000 (1971) 12000 (1958) 40500 17100 22300 25000 26600 34600 47200 50400 70700 90100
2020-02-20 09:30 13.86 74000 101000 (1971) 12000 (1958) 40500 17100 22300 25000 26600 34600 47200 50400 70700 90100
2020-02-20 08:30 13.83 73800 101000 (1971) 12000 (1958) 40500 17100 22300 25000 26600 34600 47200 50400 70700 90100
2020-02-20 07:30 13.82 73700 101000 (1971) 12000 (1958) 40500 17100 22300 25000 26600 34600 47200 50400 70700 90100
2020-02-20 06:30 13.78 73400 101000 (1971) 12000 (1958) 40500 17100 22300 25000 26600 34600 47200 50400 70700 90100
2020-02-20 05:30 13.76 73300 101000 (1971) 12000 (1958) 40500 17100 22300 25000 26600 34600 47200 50400 70700 90100
2020-02-20 04:30 13.72 73000 101000 (1971) 12000 (1958) 40500 17100 22300 25000 26600 34600 47200 50400 70700 90100
2020-02-20 03:30 13.68 72800 101000 (1971) 12000 (1958) 40500 17100 22300 25000 26600 34600 47200 50400 70700 90100
2020-02-20 02:30 13.66 72600 101000 (1971) 12000 (1958) 40500 17100 22300 25000 26600 34600 47200 50400 70700 90100
2020-02-20 01:30 13.65 72600 101000 (1971) 12000 (1958) 40500 17100 22300 25000 26600 34600 47200 50400 70700 90100
2020-02-20 00:30 13.59 72200 101000 (1971) 12000 (1958) 40500 17100 22300 25000 26600 34600 47200 50400 70700 90100
2020-02-19 23:30 13.65 72600 102000 (2011) 12800 (1958) 39700 18000 22700 25100 27500 35200 48500 52200 64000 80800
2020-02-19 22:30 13.57 72000 102000 (2011) 12800 (1958) 39700 18000 22700 25100 27500 35200 48500 52200 64000 80800
2020-02-19 21:30 13.56 72000 102000 (2011) 12800 (1958) 39700 18000 22700 25100 27500 35200 48500 52200 64000 80800
2020-02-19 20:30 13.54 71800 102000 (2011) 12800 (1958) 39700 18000 22700 25100 27500 35200 48500 52200 64000 80800
2020-02-19 19:30 13.53 71800 102000 (2011) 12800 (1958) 39700 18000 22700 25100 27500 35200 48500 52200 64000 80800
2020-02-19 18:30 13.55 71900 102000 (2011) 12800 (1958) 39700 18000 22700 25100 27500 35200 48500 52200 64000 80800
2020-02-19 17:30 13.51 71600 102000 (2011) 12800 (1958) 39700 18000 22700 25100 27500 35200 48500 52200 64000 80800
2020-02-19 16:30 13.53 71800 102000 (2011) 12800 (1958) 39700 18000 22700 25100 27500 35200 48500 52200 64000 80800
2020-02-19 15:30 13.49 71500 102000 (2011) 12800 (1958) 39700 18000 22700 25100 27500 35200 48500 52200 64000 80800
2020-02-19 14:30 13.49 71500 102000 (2011) 12800 (1958) 39700 18000 22700 25100 27500 35200 48500 52200 64000 80800
2020-02-19 13:30 13.49 71500 102000 (2011) 12800 (1958) 39700 18000 22700 25100 27500 35200 48500 52200 64000 80800
2020-02-19 12:30 13.47 71400 102000 (2011) 12800 (1958) 39700 18000 22700 25100 27500 35200 48500 52200 64000 80800
2020-02-19 11:30 13.46 71300 102000 (2011) 12800 (1958) 39700 18000 22700 25100 27500 35200 48500 52200 64000 80800
2020-02-19 10:30 13.43 71100 102000 (2011) 12800 (1958) 39700 18000 22700 25100 27500 35200 48500 52200 64000 80800
2020-02-19 09:30 13.43 71100 102000 (2011) 12800 (1958) 39700 18000 22700 25100 27500 35200 48500 52200 64000 80800
2020-02-19 08:30 13.38 70800 102000 (2011) 12800 (1958) 39700 18000 22700 25100 27500 35200 48500 52200 64000 80800
2020-02-19 07:30 13.38 70800 102000 (2011) 12800 (1958) 39700 18000 22700 25100 27500 35200 48500 52200 64000 80800
2020-02-19 06:30 13.34 70500 102000 (2011) 12800 (1958) 39700 18000 22700 25100 27500 35200 48500 52200 64000 80800
2020-02-19 05:30 13.32 70400 102000 (2011) 12800 (1958) 39700 18000 22700 25100 27500 35200 48500 52200 64000 80800
2020-02-19 04:30 13.30 70200 102000 (2011) 12800 (1958) 39700 18000 22700 25100 27500 35200 48500 52200 64000 80800
2020-02-19 03:30 13.25 69900 102000 (2011) 12800 (1958) 39700 18000 22700 25100 27500 35200 48500 52200 64000 80800
2020-02-19 02:30 13.26 70000 102000 (2011) 12800 (1958) 39700 18000 22700 25100 27500 35200 48500 52200 64000 80800
2020-02-19 01:30 13.26 70000 102000 (2011) 12800 (1958) 39700 18000 22700 25100 27500 35200 48500 52200 64000 80800
2020-02-19 00:30 13.21 69600 102000 (2011) 12800 (1958) 39700 18000 22700 25100 27500 35200 48500 52200 64000 80800
2020-02-18 23:30 13.17 69400 95800 (1984) 12100 (1958) 38300 18200 22500 24400 26000 34200 48300 49100 57600 79400
2020-02-18 22:30 13.20 69600 95800 (1984) 12100 (1958) 38300 18200 22500 24400 26000 34200 48300 49100 57600 79400
2020-02-18 21:30 13.13 69100 95800 (1984) 12100 (1958) 38300 18200 22500 24400 26000 34200 48300 49100 57600 79400
2020-02-18 20:30 13.10 68900 95800 (1984) 12100 (1958) 38300 18200 22500 24400 26000 34200 48300 49100 57600 79400
2020-02-18 19:30 13.07 68700 95800 (1984) 12100 (1958) 38300 18200 22500 24400 26000 34200 48300 49100 57600 79400
2020-02-18 18:30 13.03 68500 95800 (1984) 12100 (1958) 38300 18200 22500 24400 26000 34200 48300 49100 57600 79400
2020-02-18 17:30 12.99 68200 95800 (1984) 12100 (1958) 38300 18200 22500 24400 26000 34200 48300 49100 57600 79400
2020-02-18 16:30 12.95 68000 95800 (1984) 12100 (1958) 38300 18200 22500 24400 26000 34200 48300 49100 57600 79400
2020-02-18 15:30 12.95 68000 95800 (1984) 12100 (1958) 38300 18200 22500 24400 26000 34200 48300 49100 57600 79400
2020-02-18 14:30 12.89 67600 95800 (1984) 12100 (1958) 38300 18200 22500 24400 26000 34200 48300 49100 57600 79400
2020-02-18 13:30 12.85 67300 95800 (1984) 12100 (1958) 38300 18200 22500 24400 26000 34200 48300 49100 57600 79400
2020-02-18 12:30 12.79 66900 95800 (1984) 12100 (1958) 38300 18200 22500 24400 26000 34200 48300 49100 57600 79400
2020-02-18 11:30 12.81 67100 95800 (1984) 12100 (1958) 38300 18200 22500 24400 26000 34200 48300 49100 57600 79400
2020-02-18 10:30 12.75 66700 95800 (1984) 12100 (1958) 38300 18200 22500 24400 26000 34200 48300 49100 57600 79400
2020-02-18 09:30 12.72 66500 95800 (1984) 12100 (1958) 38300 18200 22500 24400 26000 34200 48300 49100 57600 79400
2020-02-18 08:30 12.68 66200 95800 (1984) 12100 (1958) 38300 18200 22500 24400 26000 34200 48300 49100 57600 79400
2020-02-18 07:30 12.58 65600 95800 (1984) 12100 (1958) 38300 18200 22500 24400 26000 34200 48300 49100 57600 79400
2020-02-18 06:30 12.54 65400 95800 (1984) 12100 (1958) 38300 18200 22500 24400 26000 34200 48300 49100 57600 79400
2020-02-18 05:30 12.52 65200 95800 (1984) 12100 (1958) 38300 18200 22500 24400 26000 34200 48300 49100 57600 79400
2020-02-18 04:30 12.50 65100 95800 (1984) 12100 (1958) 38300 18200 22500 24400 26000 34200 48300 49100 57600 79400
2020-02-18 03:30 12.46 64800 95800 (1984) 12100 (1958) 38300 18200 22500 24400 26000 34200 48300 49100 57600 79400
2020-02-18 02:30 12.41 64500 95800 (1984) 12100 (1958) 38300 18200 22500 24400 26000 34200 48300 49100 57600 79400
2020-02-18 01:30 12.41 64500 95800 (1984) 12100 (1958) 38300 18200 22500 24400 26000 34200 48300 49100 57600 79400
2020-02-18 00:30 12.37 64300 95800 (1984) 12100 (1958) 38300 18200 22500 24400 26000 34200 48300 49100 57600 79400

A total of 181 rows are displayed for years 1958 through 2019.